首页
METAR-TAF:

METAR-TAF

机场 :

大瀑布城, 蒙大拿州, 美国

纬度: 47-30N, 经度: 111-11W, 海拔: 1075米

当前天气观测

该预报发布于31分钟前的16:55 UTC
静风
温度 25°C
湿度 44%
气压 1024 hPa
能見度: 16.1公里
天空无云

METAR: KGFA 211655Z AUTO 00000KT 10SM CLR 25/12 A3025 RMK AO2 SLP217 T02500115

时间: 11:26 (17:26 UTC)

预报

预报有效从19日的 21点(UTC)到 21日的 03点(UTC)
风速6节,风向多变
能见度10公里或以上
天空无云
成为
从 20日的 20点(UTC)到 20日的 21点(UTC)
风速12节,风向东北,有时为18节阵风
能见度10公里或以上
天空无云
成为
从 21日的 00点(UTC)到 21日的 01点(UTC)
风速6节,风向多变
能見度: 2213
天空无云

TAF: KGFA 1921/2103 VRB06KT 9999 SKC QNH3016INS BECMG 2020/2021 05012G18KT 9999 SKC QNH3021INS BECMG 2100/2101 VRB06KT 9999 SKC QNH3021INS TX33/2020Z TN16/2011Z LAST NO AMDS AFT 1922 NEXT 2213

超过4000个机场的气象观测和天气预报(METAR&TAF报告)。

可查询的气象台以黄色和红色小点在地图上表示。

将鼠标移到小点上方,可查看气象台名称。

然后点击查看天气观测和预报。

如需切换地图:点击带黑十字的绿色按钮放大地图;点击带横线的绿色按钮缩小地图;或者点击绿色箭头查看邻近地区的地图。


METAR-TAF: